Time;durP1;ratioP1;P1;durP2;ratioP2;P2;SDS_P1;SDS_P2;PMS_P1;PMS_P2;Temp;Humidity;BMP_temperature;BMP_pressure;BME280_temperature;BME280_humidity;BME280_pressure;Samples;Min_cycle;Max_cycle;Signal;HPM_P1;HPM_P2
2021/01/09 00:01:19;;;;;;;5.10;4.80;;;-2.00;99.90;;;;;;5082961;28;20226;-74
2021/01/09 00:03:46;;;;;;;6.32;5.00;;;-2.00;99.90;;;;;;5102864;27;20236;-74
2021/01/09 00:06:13;;;;;;;5.20;4.85;;;-2.10;99.90;;;;;;5102082;28;20236;-74
2021/01/09 00:08:40;;;;;;;5.32;4.97;;;-2.20;99.90;;;;;;5101480;27;20603;-75
2021/01/09 00:11:06;;;;;;;5.07;4.72;;;-2.20;99.90;;;;;;5104733;28;20220;-74
2021/01/09 00:13:33;;;;;;;4.45;4.20;;;-2.20;99.90;;;;;;5106151;28;20254;-74
2021/01/09 00:16:00;;;;;;;5.15;4.80;;;-2.30;99.90;;;;;;5106452;27;20687;-74
2021/01/09 00:18:26;;;;;;;5.30;4.90;;;-2.20;99.90;;;;;;5102590;27;20225;-74
2021/01/09 00:20:54;;;;;;;5.20;4.78;;;-2.30;99.90;;;;;;5107319;28;20240;-73
2021/01/09 00:23:20;;;;;;;4.95;4.63;;;-2.30;99.90;;;;;;5120913;28;20272;-74
2021/01/09 00:25:47;;;;;;;5.20;4.90;;;-2.30;99.90;;;;;;5120053;27;20571;-74
2021/01/09 00:28:14;;;;;;;5.22;4.82;;;-2.30;99.90;;;;;;5111064;27;20228;-74
2021/01/09 00:30:41;;;;;;;5.35;4.97;;;-2.30;99.90;;;;;;5116394;27;20231;-74
2021/01/09 00:33:07;;;;;;;5.40;5.00;;;-2.30;99.90;;;;;;5108656;27;20301;-74
2021/01/09 00:35:34;;;;;;;5.95;5.55;;;-2.30;99.90;;;;;;5112790;27;20228;-74
2021/01/09 00:38:01;;;;;;;5.22;4.90;;;-2.30;99.90;;;;;;5113376;27;20309;-75
2021/01/09 00:40:28;;;;;;;4.82;4.43;;;-2.30;99.90;;;;;;5107243;27;20225;-74
2021/01/09 00:42:54;;;;;;;5.47;4.97;;;-2.30;99.90;;;;;;5114735;27;20262;-74
2021/01/09 00:45:21;;;;;;;5.30;5.00;;;-2.40;99.90;;;;;;5100848;27;20312;-75
2021/01/09 00:47:47;;;;;;;5.03;4.72;;;-2.40;99.90;;;;;;5113817;27;20727;-75
2021/01/09 00:50:14;;;;;;;4.75;4.35;;;-2.40;99.90;;;;;;5124523;27;20232;-74
2021/01/09 00:52:40;;;;;;;5.35;5.00;;;-2.30;99.90;;;;;;5111332;27;20594;-74
2021/01/09 00:55:09;;;;;;;4.57;4.28;;;-2.30;99.90;;;;;;5115726;27;20244;-74
2021/01/09 00:57:36;;;;;;;5.85;5.45;;;-2.30;99.90;;;;;;5100929;27;20229;-74
2021/01/09 01:00:03;;;;;;;5.35;5.05;;;-2.30;99.90;;;;;;5116474;27;20236;-74
2021/01/09 01:02:30;;;;;;;5.50;5.20;;;-2.40;99.90;;;;;;5087886;27;20688;-74
2021/01/09 01:04:57;;;;;;;5.15;4.82;;;-2.40;99.90;;;;;;5115727;27;20531;-74
2021/01/09 01:07:23;;;;;;;6.03;5.63;;;-2.40;99.90;;;;;;5116421;27;20228;-74
2021/01/09 01:09:50;;;;;;;4.88;4.60;;;-2.50;99.90;;;;;;5106932;27;20247;-74
2021/01/09 01:12:17;;;;;;;5.28;4.85;;;-2.60;99.90;;;;;;5113068;27;20231;-74
2021/01/09 01:14:44;;;;;;;5.45;5.15;;;-2.60;99.90;;;;;;5110292;27;20224;-74
2021/01/09 01:17:10;;;;;;;5.07;4.78;;;-2.60;99.90;;;;;;5107909;27;20267;-75
2021/01/09 01:19:37;;;;;;;5.30;4.90;;;-2.60;99.90;;;;;;5105744;27;20673;-74
2021/01/09 01:22:03;;;;;;;5.35;4.95;;;-2.60;99.90;;;;;;5112057;27;20223;-73
2021/01/09 01:24:30;;;;;;;4.68;4.38;;;-2.70;99.90;;;;;;5111659;27;20726;-74
2021/01/09 01:26:56;;;;;;;5.00;4.70;;;-2.70;99.90;;;;;;5104738;27;21278;-73
2021/01/09 01:29:24;;;;;;;4.88;4.57;;;-2.80;99.90;;;;;;5111843;27;20223;-74
2021/01/09 01:31:50;;;;;;;4.93;4.63;;;-2.90;99.90;;;;;;5106170;27;21996;-75
2021/01/09 01:34:17;;;;;;;5.00;4.70;;;-2.90;99.90;;;;;;5119031;27;20388;-74
2021/01/09 01:36:48;;;;;;;5.10;4.80;;;-2.90;99.90;;;;;;5115621;27;20583;-74
2021/01/09 01:39:15;;;;;;;5.50;5.10;;;-3.00;99.90;;;;;;5103114;27;20808;-74
2021/01/09 01:41:41;;;;;;;4.97;4.68;;;-3.00;99.90;;;;;;5106544;27;20202;-75
2021/01/09 01:44:08;;;;;;;5.18;4.88;;;-3.00;99.90;;;;;;5083858;28;20700;-75
2021/01/09 01:46:35;;;;;;;5.20;4.90;;;-3.00;99.90;;;;;;5086198;28;20237;-74
2021/01/09 01:49:02;;;;;;;5.40;5.10;;;-2.90;99.90;;;;;;5099045;28;20715;-75
2021/01/09 01:51:30;;;;;;;5.07;4.78;;;-2.90;99.90;;;;;;5098201;28;20221;-74
2021/01/09 01:53:57;;;;;;;4.82;4.53;;;-2.80;99.90;;;;;;5100160;28;20228;-74
2021/01/09 01:56:23;;;;;;;5.35;4.97;;;-2.90;99.90;;;;;;5101678;27;20228;-75
2021/01/09 01:58:50;;;;;;;5.40;5.00;;;-2.90;99.90;;;;;;5105452;28;20721;-74
2021/01/09 02:01:17;;;;;;;5.43;5.03;;;-2.80;99.90;;;;;;5099123;27;20221;-74
2021/01/09 02:03:44;;;;;;;5.28;4.88;;;-2.80;99.90;;;;;;5106810;27;20227;-75
2021/01/09 02:06:15;;;;;;;5.10;4.75;;;-2.80;99.90;;;;;;5099109;27;20225;-75
2021/01/09 02:08:48;;;;;;;4.47;4.18;;;-2.80;99.90;;;;;;5104740;27;20289;-74
2021/01/09 02:11:23;;;;;;;5.53;5.18;;;-2.80;99.90;;;;;;5103487;27;20269;-74
2021/01/09 02:13:57;;;;;;;4.95;4.55;;;-2.80;99.90;;;;;;5089273;27;20216;-74
2021/01/09 02:16:25;;;;;;;4.65;4.43;;;-2.80;99.90;;;;;;5088712;27;20339;-74
2021/01/09 02:18:54;;;;;;;5.07;4.68;;;-2.80;99.90;;;;;;5101332;27;20576;-75
2021/01/09 02:21:28;;;;;;;5.25;4.95;;;-2.90;99.90;;;;;;5106677;27;20225;-74
2021/01/09 02:23:56;;;;;;;5.38;5.07;;;-2.90;99.90;;;;;;5109204;27;20215;-74
2021/01/09 02:26:23;;;;;;;4.97;4.68;;;-2.90;99.90;;;;;;5112459;27;20269;-74
2021/01/09 02:28:49;;;;;;;5.45;5.15;;;-3.00;99.90;;;;;;5111509;27;20296;-74
2021/01/09 02:31:18;;;;;;;4.80;4.50;;;-3.00;99.90;;;;;;5105215;27;20235;-75
2021/01/09 02:33:46;;;;;;;5.10;4.80;;;-2.90;99.90;;;;;;5104562;27;20231;-74
2021/01/09 02:36:13;;;;;;;5.45;5.15;;;-2.90;99.90;;;;;;5126577;27;20224;-74
2021/01/09 02:38:39;;;;;;;5.15;4.85;;;-2.90;99.90;;;;;;5112409;27;20238;-75
2021/01/09 02:41:08;;;;;;;5.00;4.70;;;-2.90;99.90;;;;;;5106790;27;20221;-75
2021/01/09 02:43:36;;;;;;;5.85;5.45;;;-2.90;99.90;;;;;;5113158;27;20277;-74
2021/01/09 02:46:03;;;;;;;5.13;4.82;;;-2.90;99.90;;;;;;5113039;27;20519;-74
2021/01/09 02:48:29;;;;;;;5.35;5.05;;;-2.90;99.90;;;;;;5115346;27;20216;-75
2021/01/09 02:50:56;;;;;;;6.15;5.75;;;-3.00;99.90;;;;;;5107235;27;20224;-75
2021/01/09 02:53:22;;;;;;;5.05;4.75;;;-3.10;99.90;;;;;;5107362;27;20357;-75
2021/01/09 02:55:49;;;;;;;4.95;4.65;;;-3.20;99.90;;;;;;5114145;27;20220;-75
2021/01/09 02:58:16;;;;;;;5.53;5.22;;;-3.20;99.90;;;;;;5104592;27;20728;-75
2021/01/09 03:00:43;;;;;;;5.40;5.00;;;-3.30;99.90;;;;;;5114141;27;20225;-75
2021/01/09 03:03:09;;;;;;;4.88;4.57;;;-3.30;99.90;;;;;;5103591;27;20221;-75
2021/01/09 03:05:36;;;;;;;5.05;4.75;;;-3.20;99.90;;;;;;5112383;27;20229;-76
2021/01/09 03:08:03;;;;;;;5.57;5.28;;;-3.20;99.90;;;;;;5094438;27;20217;-76
2021/01/09 03:10:29;;;;;;;5.65;5.25;;;-3.20;99.90;;;;;;5091308;27;20727;-75
2021/01/09 03:12:56;;;;;;;5.15;4.85;;;-3.20;99.90;;;;;;5093387;27;20225;-75
2021/01/09 03:15:23;;;;;;;5.53;5.22;;;-3.20;99.90;;;;;;5088850;27;20221;-75
2021/01/09 03:17:51;;;;;;;4.95;4.65;;;-3.10;99.90;;;;;;5085928;27;20222;-75
2021/01/09 03:20:18;;;;;;;5.10;4.80;;;-3.10;99.90;;;;;;5102809;28;20222;-75
2021/01/09 03:22:45;;;;;;;5.20;4.90;;;-3.10;99.90;;;;;;5101865;28;20235;-76
2021/01/09 03:25:12;;;;;;;5.10;4.80;;;-3.00;99.90;;;;;;5099409;28;20225;-75
2021/01/09 03:27:39;;;;;;;5.13;4.82;;;-3.00;99.90;;;;;;5102442;28;20252;-75
2021/01/09 03:30:06;;;;;;;5.85;5.45;;;-2.90;99.90;;;;;;5111638;28;20216;-75
2021/01/09 03:32:34;;;;;;;5.10;4.80;;;-2.90;99.90;;;;;;5099234;28;20221;-76
2021/01/09 03:35:00;;;;;;;4.90;4.60;;;-3.00;99.90;;;;;;5100898;27;20218;-75
2021/01/09 03:37:27;;;;;;;5.38;4.97;;;-3.00;99.90;;;;;;5097752;27;20699;-76
2021/01/09 03:39:53;;;;;;;5.20;4.90;;;-3.10;99.90;;;;;;5100431;27;22005;-75
2021/01/09 03:42:20;;;;;;;5.18;4.88;;;-3.10;99.90;;;;;;5097826;28;21623;-76
2021/01/09 03:44:46;;;;;;;4.85;4.63;;;-3.20;99.90;;;;;;5099508;28;20212;-76
2021/01/09 03:47:13;;;;;;;5.72;5.32;;;-3.20;99.90;;;;;;5097531;27;20640;-76
2021/01/09 03:49:40;;;;;;;4.78;4.47;;;-3.20;99.90;;;;;;5095531;27;20229;-75
2021/01/09 03:52:07;;;;;;;5.53;5.05;;;-3.30;99.90;;;;;;5100923;28;20216;-75
2021/01/09 03:54:33;;;;;;;5.40;5.00;;;-3.30;99.90;;;;;;5100491;27;20306;-75
2021/01/09 03:57:00;;;;;;;5.00;4.70;;;-3.40;99.90;;;;;;5098761;27;20224;-75
2021/01/09 03:59:26;;;;;;;5.13;4.80;;;-3.40;99.90;;;;;;5116677;28;20363;-76
2021/01/09 04:01:53;;;;;;;4.75;4.45;;;-3.50;99.90;;;;;;5119945;28;20224;-74
2021/01/09 04:04:19;;;;;;;5.40;5.00;;;-3.50;99.90;;;;;;5104951;27;20248;-75
2021/01/09 04:06:47;;;;;;;5.60;5.20;;;-3.50;99.90;;;;;;5108695;27;20224;-75
2021/01/09 04:09:13;;;;;;;5.07;4.78;;;-3.50;99.90;;;;;;5102838;27;20718;-75
2021/01/09 04:11:40;;;;;;;5.32;5.03;;;-3.50;99.90;;;;;;5108333;27;20220;-75
2021/01/09 04:14:06;;;;;;;4.78;4.47;;;-3.50;99.90;;;;;;5087687;28;20591;-75
2021/01/09 04:16:35;;;;;;;4.75;4.47;;;-3.50;99.90;;;;;;5108459;27;20216;-75
2021/01/09 04:19:02;;;;;;;4.72;4.25;;;-3.50;99.90;;;;;;5107497;27;20292;-75
2021/01/09 04:21:29;;;;;;;5.22;4.78;;;-3.50;99.90;;;;;;5110720;27;20224;-76
2021/01/09 04:23:56;;;;;;;5.05;4.75;;;-3.50;99.90;;;;;;5119381;27;20562;-75
2021/01/09 04:26:23;;;;;;;5.28;4.97;;;-3.60;99.90;;;;;;5107430;27;20593;-75
2021/01/09 04:28:49;;;;;;;5.05;4.75;;;-3.70;99.90;;;;;;5103708;27;20714;-75
2021/01/09 04:31:16;;;;;;;4.88;4.57;;;-3.70;99.90;;;;;;5089641;28;20649;-76
2021/01/09 04:33:43;;;;;;;5.47;5.18;;;-3.80;99.90;;;;;;5100775;28;20213;-75
2021/01/09 04:36:09;;;;;;;4.78;4.57;;;-3.80;99.90;;;;;;5103380;28;20215;-75
2021/01/09 04:38:36;;;;;;;5.03;4.72;;;-3.80;99.90;;;;;;5095010;28;20289;-75
2021/01/09 04:41:03;;;;;;;5.18;4.88;;;-3.80;99.90;;;;;;5101217;28;20236;-75
2021/01/09 04:43:30;;;;;;;4.82;4.53;;;-3.80;99.90;;;;;;5101286;27;20232;-75
2021/01/09 04:45:57;;;;;;;5.47;5.18;;;-3.80;99.90;;;;;;5111320;27;20220;-74
2021/01/09 04:48:24;;;;;;;4.68;4.40;;;-3.80;99.90;;;;;;5093016;27;20300;-76
2021/01/09 04:50:51;;;;;;;5.07;4.78;;;-3.80;99.90;;;;;;5075823;28;20226;-75
2021/01/09 04:53:19;;;;;;;5.05;4.75;;;-3.80;99.90;;;;;;5080868;28;20253;-76
2021/01/09 04:55:46;;;;;;;4.85;4.55;;;-3.90;99.90;;;;;;5081562;28;20283;-76
2021/01/09 04:58:14;;;;;;;5.10;4.80;;;-3.80;99.90;;;;;;5100440;27;20244;-75
2021/01/09 05:00:41;;;;;;;5.10;4.80;;;-3.80;99.90;;;;;;5100866;28;20289;-76
2021/01/09 05:03:07;;;;;;;5.35;4.95;;;-3.80;99.90;;;;;;5101480;28;20723;-76
2021/01/09 05:05:34;;;;;;;4.63;4.43;;;-3.70;99.90;;;;;;5096676;27;20556;-75
2021/01/09 05:08:01;;;;;;;5.35;5.00;;;-3.70;99.90;;;;;;5091215;27;20244;-75
2021/01/09 05:10:34;;;;;;;4.63;4.35;;;-3.70;99.90;;;;;;5098166;27;20263;-75
2021/01/09 05:13:02;;;;;;;5.10;4.80;;;-3.70;99.90;;;;;;5083623;28;20246;-74
2021/01/09 05:15:35;;;;;;;4.78;4.47;;;-3.80;99.90;;;;;;5120711;27;20216;-75
2021/01/09 05:18:02;;;;;;;4.57;4.38;;;-3.80;99.90;;;;;;5114285;27;20225;-75
2021/01/09 05:20:29;;;;;;;4.75;4.45;;;-3.80;99.90;;;;;;5109209;27;20228;-76
2021/01/09 05:22:56;;;;;;;5.15;4.93;;;-3.80;99.90;;;;;;5101677;27;20228;-74
2021/01/09 05:25:24;;;;;;;5.15;4.85;;;-3.80;99.90;;;;;;5109584;27;20560;-75
2021/01/09 05:27:52;;;;;;;5.30;5.00;;;-3.80;99.90;;;;;;5107351;27;20223;-75
2021/01/09 05:30:19;;;;;;;5.43;5.07;;;-3.80;99.90;;;;;;5109904;27;20726;-76
2021/01/09 05:32:46;;;;;;;5.38;4.97;;;-3.90;99.90;;;;;;5115635;27;20223;-75
2021/01/09 05:35:13;;;;;;;5.22;4.82;;;-3.90;99.90;;;;;;5113280;27;20220;-75
2021/01/09 05:37:40;;;;;;;5.32;5.03;;;-3.90;99.90;;;;;;5101791;27;20278;-76
2021/01/09 05:40:09;;;;;;;5.55;5.25;;;-3.80;99.90;;;;;;5088227;28;20706;-75
2021/01/09 05:42:36;;;;;;;4.70;4.50;;;-3.80;99.90;;;;;;5113992;27;20835;-76
2021/01/09 05:45:03;;;;;;;4.80;4.50;;;-3.80;99.90;;;;;;5111213;27;20614;-75
2021/01/09 05:47:31;;;;;;;5.18;4.90;;;-3.90;99.90;;;;;;5105875;27;20229;-76
2021/01/09 05:50:00;;;;;;;5.30;5.00;;;-3.90;99.90;;;;;;5088912;27;20224;-75
2021/01/09 05:52:28;;;;;;;5.30;5.00;;;-4.00;99.90;;;;;;5102372;28;20224;-76
2021/01/09 05:54:55;;;;;;;4.90;4.60;;;-4.10;99.90;;;;;;5100197;28;20232;-76
2021/01/09 05:57:27;;;;;;;4.70;4.40;;;-4.10;99.90;;;;;;5107002;27;20293;-75
2021/01/09 05:59:56;;;;;;;5.10;4.80;;;-4.10;99.90;;;;;;5111658;27;20797;-74
2021/01/09 06:02:25;;;;;;;4.80;4.50;;;-4.00;99.90;;;;;;5114224;27;20610;-75
2021/01/09 06:04:55;;;;;;;5.10;4.72;;;-4.00;99.90;;;;;;5109603;27;20319;-76
2021/01/09 06:07:26;;;;;;;5.03;4.75;;;-4.00;99.90;;;;;;5105355;27;20225;-76
2021/01/09 06:09:58;;;;;;;5.75;5.35;;;-4.10;99.90;;;;;;5121878;27;20738;-76
2021/01/09 06:12:27;;;;;;;6.05;5.63;;;-4.10;99.90;;;;;;5106513;27;20313;-75
2021/01/09 06:14:55;;;;;;;5.72;5.32;;;-4.10;99.90;;;;;;5110351;27;20965;-74
2021/01/09 06:17:22;;;;;;;5.25;4.95;;;-4.10;99.90;;;;;;5103242;28;20703;-76
2021/01/09 06:19:49;;;;;;;5.22;4.82;;;-4.10;99.90;;;;;;5114249;27;20339;-76
2021/01/09 06:22:16;;;;;;;4.60;4.30;;;-4.10;99.90;;;;;;5104709;27;20228;-75
2021/01/09 06:24:44;;;;;;;5.65;5.35;;;-4.00;99.90;;;;;;5117686;27;20216;-75
2021/01/09 06:27:18;;;;;;;5.70;5.30;;;-4.00;99.90;;;;;;5112753;27;20216;-77
2021/01/09 06:29:49;;;;;;;5.43;5.13;;;-4.00;99.90;;;;;;5079487;28;20257;-77
2021/01/09 06:32:19;;;;;;;4.88;4.57;;;-4.00;99.90;;;;;;5071017;28;20226;-76
2021/01/09 06:34:49;;;;;;;5.20;4.90;;;-4.10;99.90;;;;;;5100817;28;20347;-76
2021/01/09 06:37:21;;;;;;;4.80;4.60;;;-4.10;99.90;;;;;;5099140;28;20552;-76
2021/01/09 06:39:50;;;;;;;5.32;5.03;;;-4.00;99.90;;;;;;5098161;27;20694;-75
2021/01/09 06:42:19;;;;;;;5.85;5.45;;;-4.00;99.90;;;;;;5104995;27;20272;-77
2021/01/09 06:44:51;;;;;;;5.18;4.88;;;-4.00;99.90;;;;;;5094677;27;20749;-76
2021/01/09 06:47:25;;;;;;;5.40;5.00;;;-4.00;99.90;;;;;;5091998;27;20257;-75
2021/01/09 06:49:52;;;;;;;5.30;5.00;;;-3.90;99.90;;;;;;5099534;27;20227;-75
2021/01/09 06:52:18;;;;;;;4.90;4.55;;;-3.90;99.90;;;;;;5079960;27;20312;-75
2021/01/09 06:54:46;;;;;;;5.15;4.85;;;-4.00;99.90;;;;;;5094890;28;20730;-75
2021/01/09 06:57:21;;;;;;;5.30;5.00;;;-4.00;99.90;;;;;;5101522;27;20221;-76
2021/01/09 06:59:49;;;;;;;5.55;5.25;;;-4.00;99.90;;;;;;5098789;28;20236;-77
2021/01/09 07:02:25;;;;;;;5.30;4.93;;;-4.00;99.90;;;;;;5104955;28;20232;-78
2021/01/09 07:04:57;;;;;;;4.97;4.65;;;-4.00;99.90;;;;;;5109344;27;20220;-76
2021/01/09 07:07:42;;;;;;;5.05;4.75;;;-4.00;99.90;;;;;;5085725;28;20229;-76
2021/01/09 07:10:16;;;;;;;5.72;5.32;;;-3.90;99.90;;;;;;5113315;27;20212;-76
2021/01/09 07:12:48;;;;;;;6.00;5.50;;;-3.90;99.90;;;;;;5110968;27;20263;-76
2021/01/09 07:15:17;;;;;;;5.88;5.45;;;-4.00;99.90;;;;;;5105718;27;20213;-76
2021/01/09 07:17:47;;;;;;;6.20;5.80;;;-4.00;99.90;;;;;;5109308;27;20257;-76
2021/01/09 07:20:14;;;;;;;6.68;6.13;;;-4.00;99.90;;;;;;5103771;27;20220;-73
2021/01/09 07:22:42;;;;;;;12.20;11.07;;;-3.90;99.90;;;;;;5113282;27;20269;-76
2021/01/09 07:25:10;;;;;;;11.80;10.68;;;-3.90;99.90;;;;;;5103977;27;20621;-74
2021/01/09 07:27:42;;;;;;;10.18;9.18;;;-3.90;99.90;;;;;;5099174;27;20707;-76
2021/01/09 07:30:15;;;;;;;8.13;7.43;;;-3.90;99.90;;;;;;5112209;27;20221;-75
2021/01/09 07:32:48;;;;;;;7.57;6.95;;;-3.70;99.90;;;;;;5102497;27;20307;-74
2021/01/09 07:35:20;;;;;;;7.88;7.18;;;-3.60;99.90;;;;;;5104071;27;20212;-76
2021/01/09 07:37:48;;;;;;;7.68;6.97;;;-3.50;99.90;;;;;;5105628;27;20570;-75
2021/01/09 07:40:17;;;;;;;8.65;7.90;;;-3.40;99.90;;;;;;5105468;27;20308;-75
2021/01/09 07:42:45;;;;;;;7.75;7.15;;;-3.30;99.90;;;;;;5107561;27;20220;-77
2021/01/09 07:45:16;;;;;;;7.18;6.57;;;-3.30;99.90;;;;;;5125825;27;20232;-76
2021/01/09 07:47:44;;;;;;;7.38;6.82;;;-3.20;99.90;;;;;;5113780;27;20514;-77
2021/01/09 07:50:14;;;;;;;7.55;6.85;;;-3.10;99.90;;;;;;5104557;27;20228;-75
2021/01/09 07:52:41;;;;;;;7.65;7.03;;;-3.00;99.90;;;;;;5095017;27;20221;-75
2021/01/09 07:55:09;;;;;;;6.45;6.05;;;-2.90;99.90;;;;;;5080345;28;20232;-78
2021/01/09 07:57:39;;;;;;;6.63;6.13;;;-2.90;99.90;;;;;;5107047;27;20234;-76
2021/01/09 08:00:15;;;;;;;6.82;6.32;;;-2.80;99.90;;;;;;5097835;28;20274;-77
2021/01/09 08:02:43;;;;;;;6.35;5.95;;;-2.70;99.90;;;;;;5097018;28;20246;-76
2021/01/09 08:05:15;;;;;;;7.38;6.78;;;-2.60;99.90;;;;;;5098006;27;20767;-75
2021/01/09 08:07:43;;;;;;;6.88;6.47;;;-2.60;99.90;;;;;;5098705;27;20224;-77
2021/01/09 08:10:28;;;;;;;7.03;6.22;;;-2.40;99.90;;;;;;5095250;28;20327;-75
2021/01/09 08:12:56;;;;;;;6.32;5.82;;;-2.40;99.90;;;;;;5092356;27;20216;-76
2021/01/09 08:15:25;;;;;;;7.50;6.97;;;-2.30;99.90;;;;;;5096524;27;20220;-78
2021/01/09 08:17:52;;;;;;;6.03;5.50;;;-2.20;99.90;;;;;;5098323;28;20227;-77
2021/01/09 08:20:19;;;;;;;7.80;7.28;;;-2.10;99.90;;;;;;5100275;28;20228;-75
2021/01/09 08:22:53;;;;;;;7.30;6.60;;;-2.10;99.90;;;;;;5094925;28;20232;-78
2021/01/09 08:25:21;;;;;;;7.05;6.45;;;-2.00;99.90;;;;;;5096268;27;20303;-77
2021/01/09 08:27:52;;;;;;;7.20;6.70;;;-1.60;99.90;;;;;;5106302;28;20228;-75
2021/01/09 08:30:21;;;;;;;7.90;7.30;;;-1.20;99.90;;;;;;5100441;28;20221;-77
2021/01/09 08:32:49;;;;;;;7.10;6.50;;;-0.90;99.90;;;;;;5104406;28;20316;-75
2021/01/09 08:35:16;;;;;;;7.55;6.95;;;-0.60;99.90;;;;;;5104953;27;20717;-75
2021/01/09 08:37:44;;;;;;;7.07;6.57;;;-0.40;99.90;;;;;;5098097;28;20228;-74
2021/01/09 08:40:19;;;;;;;7.32;6.72;;;-0.10;99.90;;;;;;5080415;28;20260;-75
2021/01/09 08:42:59;;;;;;;7.80;6.95;;;0.20;99.90;;;;;;5077780;28;20233;-77
2021/01/09 08:45:42;;;;;;;7.93;7.30;;;0.40;99.90;;;;;;5107040;27;20699;-77
2021/01/09 08:48:11;;;;;;;7.43;6.75;;;0.60;99.90;;;;;;5116368;27;20213;-77
2021/01/09 08:50:45;;;;;;;9.80;7.45;;;0.80;99.90;;;;;;5122453;27;20237;-77
2021/01/09 08:53:12;;;;;;;6.88;6.30;;;1.00;99.90;;;;;;5108878;27;20691;-75
2021/01/09 08:55:39;;;;;;;6.13;5.63;;;1.40;99.90;;;;;;5112220;27;20224;-76
2021/01/09 08:58:12;;;;;;;6.97;6.38;;;2.00;99.90;;;;;;5107929;27;20459;-77
2021/01/09 09:00:38;;;;;;;7.65;6.93;;;2.30;99.90;;;;;;5114678;27;20516;-77
2021/01/09 09:03:07;;;;;;;9.15;8.30;;;2.50;99.90;;;;;;5101103;27;20221;-77
2021/01/09 09:05:38;;;;;;;7.13;6.53;;;2.30;99.90;;;;;;5087728;27;20241;-76
2021/01/09 09:08:12;;;;;;;7.18;6.30;;;2.40;99.90;;;;;;5114063;27;20244;-77
2021/01/09 09:10:39;;;;;;;8.40;6.30;;;2.20;99.90;;;;;;5111792;27;20236;-76
2021/01/09 09:13:20;;;;;;;7.35;6.65;;;2.20;99.90;;;;;;5113581;27;20249;-77
2021/01/09 09:15:47;;;;;;;7.07;6.53;;;2.60;99.90;;;;;;5111958;27;20216;-76
2021/01/09 09:18:14;;;;;;;6.75;6.18;;;3.10;99.90;;;;;;5116959;27;20212;-77
2021/01/09 09:20:46;;;;;;;7.10;6.40;;;3.80;99.90;;;;;;5111743;27;20235;-76
2021/01/09 09:23:23;;;;;;;6.60;6.00;;;5.00;99.90;;;;;;5116552;27;20347;-77
2021/01/09 09:26:07;;;;;;;6.05;5.55;;;6.60;99.90;;;;;;5110251;27;20216;-77
2021/01/09 09:28:49;;;;;;;5.63;5.13;;;8.00;99.80;;;;;;5114403;27;20232;-76
2021/01/09 09:31:24;;;;;;;6.10;5.60;;;9.40;96.40;;;;;;5104102;27;20606;-76
2021/01/09 09:33:59;;;;;;;6.32;5.82;;;10.10;92.80;;;;;;5103582;27;20217;-76
2021/01/09 09:36:27;;;;;;;6.30;5.80;;;10.50;90.80;;;;;;5100473;27;20220;-76
2021/01/09 09:38:54;;;;;;;6.28;5.68;;;10.50;90.30;;;;;;5094460;27;22484;-75
2021/01/09 09:41:21;;;;;;;6.30;5.80;;;10.90;89.10;;;;;;5114561;27;20233;-78
2021/01/09 09:43:55;;;;;;;5.85;5.35;;;11.20;87.00;;;;;;5119848;27;20221;-77
2021/01/09 09:46:22;;;;;;;8.73;5.63;;;11.30;84.90;;;;;;5114069;27;20220;-76
2021/01/09 09:48:48;;;;;;;5.75;5.20;;;11.50;84.60;;;;;;5112735;27;20775;-76
2021/01/09 09:51:15;;;;;;;5.35;4.72;;;11.60;83.80;;;;;;5108320;27;20254;-77
2021/01/09 09:53:51;;;;;;;5.53;5.13;;;11.20;81.30;;;;;;5108210;27;20225;-77
2021/01/09 09:56:19;;;;;;;5.95;5.35;;;10.80;80.80;;;;;;5108860;27;20223;-77
2021/01/09 09:58:46;;;;;;;5.43;5.03;;;10.50;82.50;;;;;;5105599;27;20246;-76
2021/01/09 10:01:18;;;;;;;5.97;5.47;;;10.40;82.00;;;;;;5110260;27;20791;-77
2021/01/09 10:03:44;;;;;;;5.45;5.05;;;9.80;81.50;;;;;;5106505;27;20236;-77
2021/01/09 10:06:11;;;;;;;5.15;4.75;;;8.70;85.80;;;;;;5112645;27;20229;-77
2021/01/09 10:08:37;;;;;;;5.75;5.28;;;7.80;89.90;;;;;;5111313;27;20278;-76
2021/01/09 10:11:05;;;;;;;5.57;5.18;;;7.10;89.90;;;;;;5120325;27;20224;-77
2021/01/09 10:13:33;;;;;;;8.35;6.28;;;6.40;91.10;;;;;;5107470;27;20233;-77
2021/01/09 10:16:00;;;;;;;7.05;5.80;;;5.80;92.90;;;;;;5111284;27;20698;-77
2021/01/09 10:18:28;;;;;;;6.55;5.88;;;5.40;94.00;;;;;;5113386;27;20235;-77
2021/01/09 10:20:56;;;;;;;6.25;5.50;;;5.20;94.70;;;;;;5107844;27;20227;-77
2021/01/09 10:23:22;;;;;;;5.90;5.35;;;5.50;94.80;;;;;;5106784;27;20235;-77
2021/01/09 10:25:49;;;;;;;6.22;5.63;;;5.60;94.60;;;;;;5117634;27;20224;-76
2021/01/09 10:28:16;;;;;;;6.32;5.72;;;5.50;94.90;;;;;;5113437;27;20223;-77
2021/01/09 10:30:43;;;;;;;6.10;5.60;;;5.40;95.00;;;;;;5109662;27;20224;-78
2021/01/09 10:33:10;;;;;;;5.78;5.28;;;5.50;95.00;;;;;;5111424;27;20227;-76
2021/01/09 10:35:36;;;;;;;6.68;5.50;;;5.30;94.90;;;;;;5116321;27;20281;-76
2021/01/09 10:38:03;;;;;;;5.68;5.20;;;5.00;95.40;;;;;;5114930;27;20299;-77
2021/01/09 10:40:30;;;;;;;5.72;5.22;;;4.60;95.70;;;;;;5107970;27;20238;-77
2021/01/09 10:42:56;;;;;;;5.57;5.13;;;4.60;96.40;;;;;;5116334;27;20224;-77
2021/01/09 10:45:24;;;;;;;6.43;5.68;;;4.50;96.50;;;;;;5108897;27;20632;-77
2021/01/09 10:47:50;;;;;;;6.15;5.57;;;4.40;96.40;;;;;;5102387;27;20698;-77
2021/01/09 10:50:17;;;;;;;5.82;5.30;;;4.20;96.50;;;;;;5116351;27;20217;-77
2021/01/09 10:52:43;;;;;;;6.22;5.63;;;4.00;96.60;;;;;;5111125;27;20270;-77
2021/01/09 10:55:11;;;;;;;7.03;6.32;;;3.80;96.80;;;;;;5113093;27;20220;-74
2021/01/09 10:57:38;;;;;;;6.70;6.10;;;3.50;97.50;;;;;;5109288;27;20637;-77
2021/01/09 11:00:07;;;;;;;7.13;6.22;;;3.20;98.20;;;;;;5110833;27;20231;-77
2021/01/09 11:02:34;;;;;;;6.80;6.20;;;3.00;98.50;;;;;;5111411;27;20221;-77
2021/01/09 11:05:01;;;;;;;6.68;6.07;;;2.80;98.80;;;;;;5111763;27;20217;-77
2021/01/09 11:07:28;;;;;;;6.90;6.28;;;2.40;99.00;;;;;;5109966;27;20229;-77
2021/01/09 11:09:54;;;;;;;7.75;6.28;;;2.50;99.50;;;;;;5107317;27;20699;-76
2021/01/09 11:12:23;;;;;;;7.00;6.40;;;2.70;99.20;;;;;;5103740;27;20217;-77
2021/01/09 11:14:50;;;;;;;6.90;6.30;;;2.60;99.60;;;;;;5109548;27;20221;-77
2021/01/09 11:17:16;;;;;;;6.50;5.90;;;2.50;99.30;;;;;;5108273;27;20227;-76
2021/01/09 11:19:44;;;;;;;6.68;6.18;;;2.50;99.60;;;;;;5111833;27;20233;-77
2021/01/09 11:22:10;;;;;;;6.90;6.30;;;2.60;99.60;;;;;;5108273;27;20225;-77
2021/01/09 11:24:38;;;;;;;6.60;6.00;;;2.50;99.60;;;;;;5117587;27;20220;-77
2021/01/09 11:27:06;;;;;;;6.88;6.38;;;2.50;99.80;;;;;;5110361;27;20231;-78
2021/01/09 11:29:33;;;;;;;6.82;6.13;;;2.50;99.90;;;;;;5116110;27;20229;-77
2021/01/09 11:32:00;;;;;;;7.15;6.47;;;2.50;99.90;;;;;;5114310;27;20216;-77
2021/01/09 11:34:27;;;;;;;6.95;6.38;;;2.50;99.90;;;;;;5129182;27;20220;-78
2021/01/09 11:36:55;;;;;;;7.10;6.50;;;2.40;99.90;;;;;;5127933;27;20228;-76
2021/01/09 11:39:22;;;;;;;6.93;6.32;;;2.30;99.90;;;;;;5107611;27;20219;-78
2021/01/09 11:41:49;;;;;;;6.75;6.22;;;2.30;99.90;;;;;;5112406;27;20667;-77
2021/01/09 11:44:15;;;;;;;6.88;6.38;;;2.30;99.90;;;;;;5110201;27;20223;-78
2021/01/09 11:46:42;;;;;;;6.93;6.30;;;2.10;99.90;;;;;;5109751;27;20237;-77
2021/01/09 11:49:09;;;;;;;6.53;5.90;;;2.00;99.90;;;;;;5109099;27;20608;-76
2021/01/09 11:51:35;;;;;;;6.30;5.78;;;2.00;99.90;;;;;;5107413;27;20228;-77
2021/01/09 11:54:03;;;;;;;8.98;6.75;;;1.90;99.90;;;;;;5113101;27;20221;-76
2021/01/09 11:56:30;;;;;;;6.90;6.30;;;1.90;99.90;;;;;;5113959;27;20228;-77
2021/01/09 11:58:56;;;;;;;8.38;6.63;;;1.80;99.90;;;;;;5113326;27;20482;-77
2021/01/09 12:01:23;;;;;;;7.47;6.70;;;1.80;99.90;;;;;;5114610;27;20216;-77
2021/01/09 12:03:49;;;;;;;11.40;8.52;;;1.90;99.90;;;;;;5113612;27;20220;-76
2021/01/09 12:06:19;;;;;;;8.55;7.68;;;2.00;99.90;;;;;;5113220;27;20220;-77
2021/01/09 12:08:46;;;;;;;8.60;7.18;;;2.00;99.90;;;;;;5119807;27;20243;-78
2021/01/09 12:11:20;;;;;;;7.55;6.93;;;1.90;99.90;;;;;;5108978;27;20269;-76
2021/01/09 12:13:46;;;;;;;9.18;7.55;;;1.90;99.90;;;;;;5117155;27;20300;-77
2021/01/09 12:16:13;;;;;;;7.82;6.90;;;1.80;99.90;;;;;;5107185;27;20225;-77
2021/01/09 12:18:39;;;;;;;7.32;6.63;;;1.70;99.90;;;;;;5115340;27;20233;-77
2021/01/09 12:21:06;;;;;;;6.40;5.90;;;1.50;99.90;;;;;;5121229;27;20232;-77
2021/01/09 12:23:33;;;;;;;7.95;7.15;;;1.30;99.90;;;;;;5097999;28;20228;-76
2021/01/09 12:25:59;;;;;;;9.27;7.35;;;1.20;99.90;;;;;;5094639;28;20603;-76
2021/01/09 12:28:27;;;;;;;8.45;6.50;;;1.10;99.90;;;;;;5090814;28;20235;-76
2021/01/09 12:30:53;;;;;;;7.38;6.68;;;1.20;99.90;;;;;;5099061;27;20235;-74
2021/01/09 12:33:20;;;;;;;7.57;6.78;;;1.10;99.90;;;;;;5089214;28;20213;-76
2021/01/09 12:35:47;;;;;;;8.55;7.65;;;0.90;99.90;;;;;;5096965;27;20205;-76
2021/01/09 12:38:14;;;;;;;7.90;6.72;;;0.80;99.90;;;;;;5117081;27;20217;-76
2021/01/09 12:40:40;;;;;;;8.77;7.90;;;0.70;99.90;;;;;;5114645;27;20239;-75
2021/01/09 12:43:07;;;;;;;8.48;7.75;;;0.80;99.90;;;;;;5115496;27;20213;-76
2021/01/09 12:45:34;;;;;;;7.95;7.35;;;1.00;99.90;;;;;;5115247;27;20225;-74
2021/01/09 12:48:01;;;;;;;9.18;7.60;;;1.10;99.90;;;;;;5113609;27;20550;-75
2021/01/09 12:50:28;;;;;;;8.48;7.68;;;1.30;99.90;;;;;;5111932;27;20224;-76
2021/01/09 12:52:56;;;;;;;9.85;8.85;;;1.40;99.90;;;;;;5116859;27;20231;-75
2021/01/09 12:55:23;;;;;;;10.65;9.02;;;1.30;99.90;;;;;;5112937;27;20273;-76